sensor_id;sensor_type;location;lat;lon;timestamp;P1;durP1;ratioP1;P2;durP2;ratioP2
36221;SDS011;22266;52.340;4.962;2023-11-21T00:01:01;13.00;;;13.00;;
36221;SDS011;22266;52.340;4.962;2023-11-21T00:03:30;11.00;;;11.00;;
36221;SDS011;22266;52.340;4.962;2023-11-21T00:05:57;14.00;;;11.25;;
36221;SDS011;22266;52.340;4.962;2023-11-21T00:08:23;16.00;;;15.50;;
36221;SDS011;22266;52.340;4.962;2023-11-21T00:10:50;10.50;;;10.50;;
36221;SDS011;22266;52.340;4.962;2023-11-21T00:13:17;11.25;;;8.75;;
36221;SDS011;22266;52.340;4.962;2023-11-21T00:15:44;12.25;;;11.75;;
36221;SDS011;22266;52.340;4.962;2023-11-21T00:18:10;14.00;;;11.75;;
36221;SDS011;22266;52.340;4.962;2023-11-21T00:20:37;11.25;;;11.25;;
36221;SDS011;22266;52.340;4.962;2023-11-21T00:23:03;11.00;;;10.50;;
36221;SDS011;22266;52.340;4.962;2023-11-21T00:25:30;12.00;;;11.25;;
36221;SDS011;22266;52.340;4.962;2023-11-21T00:27:57;14.25;;;12.50;;
36221;SDS011;22266;52.340;4.962;2023-11-21T00:30:24;7.25;;;7.25;;
36221;SDS011;22266;52.340;4.962;2023-11-21T00:32:51;9.25;;;9.25;;
36221;SDS011;22266;52.340;4.962;2023-11-21T00:35:18;11.25;;;11.00;;
36221;SDS011;22266;52.340;4.962;2023-11-21T00:37:44;12.25;;;12.00;;
36221;SDS011;22266;52.340;4.962;2023-11-21T00:40:12;11.50;;;11.00;;
36221;SDS011;22266;52.340;4.962;2023-11-21T00:42:38;10.75;;;10.00;;
36221;SDS011;22266;52.340;4.962;2023-11-21T00:45:06;11.25;;;11.25;;
36221;SDS011;22266;52.340;4.962;2023-11-21T00:47:33;12.75;;;10.50;;
36221;SDS011;22266;52.340;4.962;2023-11-21T00:49:59;8.00;;;7.75;;
36221;SDS011;22266;52.340;4.962;2023-11-21T00:52:26;12.75;;;9.25;;
36221;SDS011;22266;52.340;4.962;2023-11-21T00:54:54;10.00;;;10.00;;
36221;SDS011;22266;52.340;4.962;2023-11-21T00:57:21;10.75;;;10.00;;
36221;SDS011;22266;52.340;4.962;2023-11-21T00:59:47;8.75;;;8.75;;
36221;SDS011;22266;52.340;4.962;2023-11-21T01:02:14;9.25;;;9.25;;
36221;SDS011;22266;52.340;4.962;2023-11-21T01:04:40;11.75;;;10.00;;
36221;SDS011;22266;52.340;4.962;2023-11-21T01:07:07;8.00;;;8.00;;
36221;SDS011;22266;52.340;4.962;2023-11-21T01:09:34;7.00;;;6.00;;
36221;SDS011;22266;52.340;4.962;2023-11-21T01:12:01;9.25;;;8.75;;
36221;SDS011;22266;52.340;4.962;2023-11-21T01:14:27;6.50;;;5.50;;
36221;SDS011;22266;52.340;4.962;2023-11-21T01:16:56;12.25;;;11.25;;
36221;SDS011;22266;52.340;4.962;2023-11-21T01:19:24;10.75;;;10.00;;
36221;SDS011;22266;52.340;4.962;2023-11-21T01:21:50;11.75;;;9.00;;
36221;SDS011;22266;52.340;4.962;2023-11-21T01:24:18;9.25;;;8.50;;
36221;SDS011;22266;52.340;4.962;2023-11-21T01:26:44;6.25;;;6.00;;
36221;SDS011;22266;52.340;4.962;2023-11-21T01:29:13;10.00;;;8.00;;
36221;SDS011;22266;52.340;4.962;2023-11-21T01:31:41;7.25;;;7.25;;
36221;SDS011;22266;52.340;4.962;2023-11-21T01:34:07;10.50;;;7.75;;
36221;SDS011;22266;52.340;4.962;2023-11-21T01:36:34;8.25;;;8.25;;
36221;SDS011;22266;52.340;4.962;2023-11-21T01:39:01;11.25;;;8.00;;
36221;SDS011;22266;52.340;4.962;2023-11-21T01:41:34;8.25;;;8.25;;
36221;SDS011;22266;52.340;4.962;2023-11-21T01:44:01;12.75;;;10.00;;
36221;SDS011;22266;52.340;4.962;2023-11-21T01:46:28;10.25;;;9.00;;
36221;SDS011;22266;52.340;4.962;2023-11-21T01:48:55;9.00;;;8.50;;
36221;SDS011;22266;52.340;4.962;2023-11-21T01:51:22;9.50;;;7.50;;
36221;SDS011;22266;52.340;4.962;2023-11-21T01:53:48;10.00;;;7.25;;
36221;SDS011;22266;52.340;4.962;2023-11-21T01:56:15;8.25;;;7.50;;
36221;SDS011;22266;52.340;4.962;2023-11-21T01:58:42;9.75;;;8.25;;
36221;SDS011;22266;52.340;4.962;2023-11-21T02:01:10;9.00;;;8.50;;
36221;SDS011;22266;52.340;4.962;2023-11-21T02:03:36;16.50;;;10.75;;
36221;SDS011;22266;52.340;4.962;2023-11-21T02:06:03;10.00;;;7.25;;
36221;SDS011;22266;52.340;4.962;2023-11-21T02:08:30;8.00;;;6.75;;
36221;SDS011;22266;52.340;4.962;2023-11-21T02:10:57;11.25;;;7.75;;
36221;SDS011;22266;52.340;4.962;2023-11-21T02:13:24;11.50;;;9.50;;
36221;SDS011;22266;52.340;4.962;2023-11-21T02:15:50;10.00;;;8.00;;
36221;SDS011;22266;52.340;4.962;2023-11-21T02:18:18;9.00;;;9.00;;
36221;SDS011;22266;52.340;4.962;2023-11-21T02:20:45;7.50;;;7.50;;
36221;SDS011;22266;52.340;4.962;2023-11-21T02:23:12;11.50;;;10.50;;
36221;SDS011;22266;52.340;4.962;2023-11-21T02:25:39;10.50;;;7.00;;
36221;SDS011;22266;52.340;4.962;2023-11-21T02:28:05;10.00;;;10.00;;
36221;SDS011;22266;52.340;4.962;2023-11-21T02:30:33;15.75;;;10.00;;
36221;SDS011;22266;52.340;4.962;2023-11-21T02:33:00;9.50;;;7.25;;
36221;SDS011;22266;52.340;4.962;2023-11-21T02:35:28;7.00;;;6.50;;
36221;SDS011;22266;52.340;4.962;2023-11-21T02:37:57;10.25;;;7.50;;
36221;SDS011;22266;52.340;4.962;2023-11-21T02:40:23;8.50;;;8.00;;
36221;SDS011;22266;52.340;4.962;2023-11-21T02:42:54;7.25;;;7.25;;
36221;SDS011;22266;52.340;4.962;2023-11-21T02:45:20;12.00;;;8.25;;
36221;SDS011;22266;52.340;4.962;2023-11-21T02:47:49;8.00;;;6.75;;
36221;SDS011;22266;52.340;4.962;2023-11-21T02:50:16;10.75;;;10.75;;
36221;SDS011;22266;52.340;4.962;2023-11-21T02:52:45;8.50;;;8.50;;
36221;SDS011;22266;52.340;4.962;2023-11-21T02:55:13;8.00;;;8.00;;
36221;SDS011;22266;52.340;4.962;2023-11-21T02:57:39;7.50;;;7.50;;
36221;SDS011;22266;52.340;4.962;2023-11-21T03:00:06;6.75;;;6.75;;
36221;SDS011;22266;52.340;4.962;2023-11-21T03:02:34;7.25;;;6.25;;
36221;SDS011;22266;52.340;4.962;2023-11-21T03:05:06;8.00;;;8.00;;
36221;SDS011;22266;52.340;4.962;2023-11-21T03:07:36;7.00;;;6.00;;
36221;SDS011;22266;52.340;4.962;2023-11-21T03:10:03;6.75;;;6.75;;
36221;SDS011;22266;52.340;4.962;2023-11-21T03:12:30;6.00;;;6.00;;
36221;SDS011;22266;52.340;4.962;2023-11-21T03:14:57;9.50;;;9.50;;
36221;SDS011;22266;52.340;4.962;2023-11-21T03:17:23;4.25;;;4.25;;
36221;SDS011;22266;52.340;4.962;2023-11-21T03:19:50;7.00;;;6.25;;
36221;SDS011;22266;52.340;4.962;2023-11-21T03:22:18;6.25;;;6.25;;
36221;SDS011;22266;52.340;4.962;2023-11-21T03:24:45;5.50;;;5.50;;
36221;SDS011;22266;52.340;4.962;2023-11-21T03:27:12;7.75;;;6.00;;
36221;SDS011;22266;52.340;4.962;2023-11-21T03:29:38;7.00;;;6.00;;
36221;SDS011;22266;52.340;4.962;2023-11-21T03:32:05;6.25;;;6.25;;
36221;SDS011;22266;52.340;4.962;2023-11-21T03:34:33;6.75;;;6.00;;
36221;SDS011;22266;52.340;4.962;2023-11-21T03:36:59;10.00;;;7.50;;
36221;SDS011;22266;52.340;4.962;2023-11-21T03:39:26;7.50;;;6.25;;
36221;SDS011;22266;52.340;4.962;2023-11-21T03:41:52;7.00;;;6.25;;
36221;SDS011;22266;52.340;4.962;2023-11-21T03:44:19;6.50;;;6.50;;
36221;SDS011;22266;52.340;4.962;2023-11-21T03:46:45;6.50;;;6.50;;
36221;SDS011;22266;52.340;4.962;2023-11-21T03:49:12;4.00;;;4.00;;
36221;SDS011;22266;52.340;4.962;2023-11-21T03:51:40;6.50;;;6.00;;
36221;SDS011;22266;52.340;4.962;2023-11-21T03:54:07;7.25;;;7.00;;
36221;SDS011;22266;52.340;4.962;2023-11-21T03:56:33;7.25;;;6.50;;
36221;SDS011;22266;52.340;4.962;2023-11-21T03:59:00;7.25;;;7.00;;
36221;SDS011;22266;52.340;4.962;2023-11-21T04:01:26;7.25;;;6.50;;
36221;SDS011;22266;52.340;4.962;2023-11-21T04:03:53;6.00;;;6.00;;
36221;SDS011;22266;52.340;4.962;2023-11-21T04:06:19;6.25;;;6.00;;
36221;SDS011;22266;52.340;4.962;2023-11-21T04:08:46;6.00;;;4.00;;
36221;SDS011;22266;52.340;4.962;2023-11-21T04:11:12;12.00;;;8.00;;
36221;SDS011;22266;52.340;4.962;2023-11-21T04:13:39;9.25;;;6.00;;
36221;SDS011;22266;52.340;4.962;2023-11-21T04:16:07;7.50;;;6.00;;
36221;SDS011;22266;52.340;4.962;2023-11-21T04:18:38;5.50;;;5.25;;
36221;SDS011;22266;52.340;4.962;2023-11-21T04:21:05;8.25;;;6.00;;
36221;SDS011;22266;52.340;4.962;2023-11-21T04:23:33;6.25;;;6.25;;
36221;SDS011;22266;52.340;4.962;2023-11-21T04:26:00;9.25;;;6.00;;
36221;SDS011;22266;52.340;4.962;2023-11-21T04:28:28;6.75;;;6.75;;
36221;SDS011;22266;52.340;4.962;2023-11-21T04:30:54;5.00;;;5.00;;
36221;SDS011;22266;52.340;4.962;2023-11-21T04:33:21;5.50;;;4.00;;
36221;SDS011;22266;52.340;4.962;2023-11-21T04:35:48;11.75;;;6.50;;
36221;SDS011;22266;52.340;4.962;2023-11-21T04:38:15;6.25;;;5.50;;
36221;SDS011;22266;52.340;4.962;2023-11-21T04:40:41;11.00;;;8.00;;
36221;SDS011;22266;52.340;4.962;2023-11-21T04:43:08;8.00;;;6.50;;
36221;SDS011;22266;52.340;4.962;2023-11-21T04:45:34;7.00;;;7.00;;
36221;SDS011;22266;52.340;4.962;2023-11-21T04:48:01;7.00;;;6.00;;
36221;SDS011;22266;52.340;4.962;2023-11-21T04:50:28;6.75;;;5.50;;
36221;SDS011;22266;52.340;4.962;2023-11-21T04:52:54;7.00;;;7.00;;
36221;SDS011;22266;52.340;4.962;2023-11-21T04:55:20;6.50;;;5.75;;
36221;SDS011;22266;52.340;4.962;2023-11-21T04:57:47;7.25;;;5.50;;
36221;SDS011;22266;52.340;4.962;2023-11-21T05:00:14;6.00;;;3.00;;
36221;SDS011;22266;52.340;4.962;2023-11-21T05:02:42;6.00;;;4.75;;
36221;SDS011;22266;52.340;4.962;2023-11-21T05:05:09;4.00;;;4.00;;
36221;SDS011;22266;52.340;4.962;2023-11-21T05:07:37;6.25;;;5.25;;
36221;SDS011;22266;52.340;4.962;2023-11-21T05:10:05;6.25;;;5.00;;
36221;SDS011;22266;52.340;4.962;2023-11-21T05:12:35;7.75;;;6.00;;
36221;SDS011;22266;52.340;4.962;2023-11-21T05:15:03;7.50;;;7.00;;
36221;SDS011;22266;52.340;4.962;2023-11-21T05:17:33;6.00;;;5.00;;
36221;SDS011;22266;52.340;4.962;2023-11-21T05:20:01;6.00;;;6.00;;
36221;SDS011;22266;52.340;4.962;2023-11-21T05:22:30;3.50;;;3.25;;
36221;SDS011;22266;52.340;4.962;2023-11-21T05:24:56;4.00;;;4.00;;
36221;SDS011;22266;52.340;4.962;2023-11-21T05:27:23;5.00;;;2.50;;
36221;SDS011;22266;52.340;4.962;2023-11-21T05:29:49;4.25;;;4.25;;
36221;SDS011;22266;52.340;4.962;2023-11-21T05:32:16;2.25;;;2.25;;
36221;SDS011;22266;52.340;4.962;2023-11-21T05:34:43;2.00;;;2.00;;
36221;SDS011;22266;52.340;4.962;2023-11-21T05:37:10;3.00;;;2.25;;
36221;SDS011;22266;52.340;4.962;2023-11-21T05:39:36;5.75;;;3.00;;
36221;SDS011;22266;52.340;4.962;2023-11-21T05:42:03;2.00;;;2.00;;
36221;SDS011;22266;52.340;4.962;2023-11-21T05:44:30;4.00;;;4.00;;
36221;SDS011;22266;52.340;4.962;2023-11-21T05:46:56;2.50;;;2.50;;
36221;SDS011;22266;52.340;4.962;2023-11-21T05:49:25;4.00;;;4.00;;
36221;SDS011;22266;52.340;4.962;2023-11-21T05:51:56;4.50;;;2.25;;
36221;SDS011;22266;52.340;4.962;2023-11-21T05:54:25;5.25;;;2.50;;
36221;SDS011;22266;52.340;4.962;2023-11-21T05:56:52;3.25;;;2.50;;
36221;SDS011;22266;52.340;4.962;2023-11-21T05:59:18;1.00;;;1.00;;
36221;SDS011;22266;52.340;4.962;2023-11-21T06:01:48;5.25;;;5.25;;
36221;SDS011;22266;52.340;4.962;2023-11-21T06:04:15;2.00;;;2.00;;
36221;SDS011;22266;52.340;4.962;2023-11-21T06:06:42;2.75;;;2.50;;
36221;SDS011;22266;52.340;4.962;2023-11-21T06:09:08;2.00;;;0.50;;
36221;SDS011;22266;52.340;4.962;2023-11-21T06:11:35;2.00;;;2.00;;
36221;SDS011;22266;52.340;4.962;2023-11-21T06:14:01;4.00;;;2.75;;
36221;SDS011;22266;52.340;4.962;2023-11-21T06:16:28;1.25;;;1.25;;
36221;SDS011;22266;52.340;4.962;2023-11-21T06:18:55;2.25;;;2.25;;
36221;SDS011;22266;52.340;4.962;2023-11-21T06:21:22;3.00;;;3.00;;
36221;SDS011;22266;52.340;4.962;2023-11-21T06:23:48;2.50;;;1.00;;
36221;SDS011;22266;52.340;4.962;2023-11-21T06:26:19;3.00;;;3.00;;
36221;SDS011;22266;52.340;4.962;2023-11-21T06:28:46;4.50;;;3.00;;
36221;SDS011;22266;52.340;4.962;2023-11-21T06:31:13;6.00;;;6.00;;
36221;SDS011;22266;52.340;4.962;2023-11-21T06:33:40;5.50;;;3.75;;
36221;SDS011;22266;52.340;4.962;2023-11-21T06:36:07;5.50;;;5.50;;
36221;SDS011;22266;52.340;4.962;2023-11-21T06:38:34;4.50;;;4.50;;
36221;SDS011;22266;52.340;4.962;2023-11-21T06:41:00;6.00;;;4.00;;
36221;SDS011;22266;52.340;4.962;2023-11-21T06:43:30;2.00;;;2.00;;
36221;SDS011;22266;52.340;4.962;2023-11-21T06:45:57;5.00;;;4.50;;
36221;SDS011;22266;52.340;4.962;2023-11-21T06:48:25;3.00;;;2.50;;
36221;SDS011;22266;52.340;4.962;2023-11-21T06:50:51;6.00;;;3.75;;
36221;SDS011;22266;52.340;4.962;2023-11-21T06:53:18;2.50;;;2.00;;
36221;SDS011;22266;52.340;4.962;2023-11-21T06:55:45;3.00;;;3.00;;
36221;SDS011;22266;52.340;4.962;2023-11-21T06:58:12;8.00;;;7.00;;
36221;SDS011;22266;52.340;4.962;2023-11-21T07:00:40;3.00;;;3.00;;
36221;SDS011;22266;52.340;4.962;2023-11-21T07:03:07;4.25;;;4.25;;
36221;SDS011;22266;52.340;4.962;2023-11-21T07:05:34;3.75;;;3.75;;
36221;SDS011;22266;52.340;4.962;2023-11-21T07:08:00;6.00;;;4.00;;
36221;SDS011;22266;52.340;4.962;2023-11-21T07:10:30;3.25;;;3.00;;
36221;SDS011;22266;52.340;4.962;2023-11-21T07:12:57;4.00;;;4.00;;
36221;SDS011;22266;52.340;4.962;2023-11-21T07:15:24;6.50;;;6.50;;
36221;SDS011;22266;52.340;4.962;2023-11-21T07:17:52;4.50;;;4.00;;
36221;SDS011;22266;52.340;4.962;2023-11-21T07:20:20;5.00;;;5.00;;
36221;SDS011;22266;52.340;4.962;2023-11-21T07:22:47;4.00;;;4.00;;
36221;SDS011;22266;52.340;4.962;2023-11-21T07:25:14;6.75;;;6.75;;
36221;SDS011;22266;52.340;4.962;2023-11-21T07:27:40;5.50;;;5.50;;
36221;SDS011;22266;52.340;4.962;2023-11-21T07:30:07;8.25;;;7.50;;
36221;SDS011;22266;52.340;4.962;2023-11-21T07:32:36;2.50;;;2.50;;
36221;SDS011;22266;52.340;4.962;2023-11-21T07:35:06;5.50;;;5.50;;
36221;SDS011;22266;52.340;4.962;2023-11-21T07:37:34;6.50;;;4.25;;
36221;SDS011;22266;52.340;4.962;2023-11-21T07:40:00;8.25;;;7.00;;
36221;SDS011;22266;52.340;4.962;2023-11-21T07:42:27;6.75;;;5.00;;
36221;SDS011;22266;52.340;4.962;2023-11-21T07:44:53;7.50;;;7.00;;
36221;SDS011;22266;52.340;4.962;2023-11-21T07:47:20;7.25;;;5.00;;
36221;SDS011;22266;52.340;4.962;2023-11-21T07:49:46;7.00;;;4.00;;
36221;SDS011;22266;52.340;4.962;2023-11-21T07:52:13;12.00;;;7.00;;
36221;SDS011;22266;52.340;4.962;2023-11-21T07:54:42;3.50;;;3.00;;
36221;SDS011;22266;52.340;4.962;2023-11-21T07:57:09;5.50;;;3.50;;
36221;SDS011;22266;52.340;4.962;2023-11-21T07:59:40;5.75;;;3.50;;
36221;SDS011;22266;52.340;4.962;2023-11-21T08:02:07;3.75;;;3.75;;
36221;SDS011;22266;52.340;4.962;2023-11-21T08:04:33;5.75;;;5.00;;
36221;SDS011;22266;52.340;4.962;2023-11-21T08:07:01;5.25;;;2.50;;
36221;SDS011;22266;52.340;4.962;2023-11-21T08:09:30;8.75;;;6.50;;
36221;SDS011;22266;52.340;4.962;2023-11-21T08:11:57;3.25;;;3.25;;
36221;SDS011;22266;52.340;4.962;2023-11-21T08:14:23;6.75;;;6.75;;
36221;SDS011;22266;52.340;4.962;2023-11-21T08:16:51;6.25;;;4.00;;
36221;SDS011;22266;52.340;4.962;2023-11-21T08:19:18;6.75;;;6.25;;
36221;SDS011;22266;52.340;4.962;2023-11-21T08:21:45;11.00;;;8.75;;
36221;SDS011;22266;52.340;4.962;2023-11-21T08:24:12;7.00;;;6.50;;
36221;SDS011;22266;52.340;4.962;2023-11-21T08:26:38;6.00;;;5.25;;
36221;SDS011;22266;52.340;4.962;2023-11-21T08:29:05;6.25;;;3.25;;
36221;SDS011;22266;52.340;4.962;2023-11-21T08:31:33;4.50;;;4.50;;
36221;SDS011;22266;52.340;4.962;2023-11-21T08:34:00;6.00;;;4.00;;
36221;SDS011;22266;52.340;4.962;2023-11-21T08:36:29;10.00;;;7.00;;
36221;SDS011;22266;52.340;4.962;2023-11-21T08:38:57;4.50;;;4.50;;
36221;SDS011;22266;52.340;4.962;2023-11-21T08:41:24;7.75;;;6.25;;
36221;SDS011;22266;52.340;4.962;2023-11-21T08:43:50;9.50;;;5.50;;
36221;SDS011;22266;52.340;4.962;2023-11-21T08:46:18;6.00;;;4.00;;
36221;SDS011;22266;52.340;4.962;2023-11-21T08:48:45;6.00;;;6.00;;
36221;SDS011;22266;52.340;4.962;2023-11-21T08:51:12;5.25;;;5.25;;
36221;SDS011;22266;52.340;4.962;2023-11-21T08:53:40;6.75;;;6.75;;
36221;SDS011;22266;52.340;4.962;2023-11-21T08:56:07;6.25;;;5.25;;
36221;SDS011;22266;52.340;4.962;2023-11-21T08:58:35;7.25;;;6.25;;
36221;SDS011;22266;52.340;4.962;2023-11-21T09:01:04;10.00;;;9.00;;
36221;SDS011;22266;52.340;4.962;2023-11-21T09:03:31;10.00;;;8.00;;
36221;SDS011;22266;52.340;4.962;2023-11-21T09:06:00;9.00;;;9.00;;
36221;SDS011;22266;52.340;4.962;2023-11-21T09:08:27;6.50;;;6.50;;
36221;SDS011;22266;52.340;4.962;2023-11-21T09:10:55;8.00;;;7.00;;
36221;SDS011;22266;52.340;4.962;2023-11-21T09:13:22;13.25;;;7.50;;
36221;SDS011;22266;52.340;4.962;2023-11-21T09:15:51;10.75;;;9.50;;
36221;SDS011;22266;52.340;4.962;2023-11-21T09:18:18;7.50;;;7.50;;
36221;SDS011;22266;52.340;4.962;2023-11-21T09:20:45;8.00;;;8.00;;
36221;SDS011;22266;52.340;4.962;2023-11-21T09:23:11;12.50;;;10.25;;
36221;SDS011;22266;52.340;4.962;2023-11-21T09:25:38;15.00;;;13.00;;
36221;SDS011;22266;52.340;4.962;2023-11-21T09:28:05;22.25;;;18.25;;
36221;SDS011;22266;52.340;4.962;2023-11-21T09:30:35;12.50;;;11.50;;
36221;SDS011;22266;52.340;4.962;2023-11-21T09:33:03;15.00;;;11.75;;
36221;SDS011;22266;52.340;4.962;2023-11-21T09:35:33;12.00;;;11.75;;
36221;SDS011;22266;52.340;4.962;2023-11-21T09:38:00;19.75;;;14.50;;
36221;SDS011;22266;52.340;4.962;2023-11-21T09:40:28;17.50;;;11.75;;
36221;SDS011;22266;52.340;4.962;2023-11-21T09:42:58;16.25;;;12.50;;
36221;SDS011;22266;52.340;4.962;2023-11-21T09:45:25;8.50;;;7.25;;
36221;SDS011;22266;52.340;4.962;2023-11-21T09:47:57;15.25;;;11.75;;
36221;SDS011;22266;52.340;4.962;2023-11-21T09:50:23;12.00;;;9.75;;
36221;SDS011;22266;52.340;4.962;2023-11-21T09:52:55;15.75;;;12.75;;
36221;SDS011;22266;52.340;4.962;2023-11-21T09:55:27;10.00;;;8.75;;
36221;SDS011;22266;52.340;4.962;2023-11-21T09:57:58;14.25;;;12.75;;
36221;SDS011;22266;52.340;4.962;2023-11-21T10:00:24;14.25;;;11.25;;
36221;SDS011;22266;52.340;4.962;2023-11-21T10:02:53;12.50;;;11.00;;
36221;SDS011;22266;52.340;4.962;2023-11-21T10:05:21;11.00;;;9.75;;
36221;SDS011;22266;52.340;4.962;2023-11-21T10:07:52;17.00;;;12.00;;
36221;SDS011;22266;52.340;4.962;2023-11-21T10:10:23;10.00;;;7.75;;
36221;SDS011;22266;52.340;4.962;2023-11-21T10:12:53;13.00;;;9.00;;
36221;SDS011;22266;52.340;4.962;2023-11-21T10:15:23;11.75;;;9.50;;
36221;SDS011;22266;52.340;4.962;2023-11-21T10:17:52;14.00;;;8.00;;
36221;SDS011;22266;52.340;4.962;2023-11-21T10:20:21;17.75;;;13.50;;
36221;SDS011;22266;52.340;4.962;2023-11-21T10:22:50;8.50;;;8.50;;
36221;SDS011;22266;52.340;4.962;2023-11-21T10:25:17;12.75;;;12.00;;
36221;SDS011;22266;52.340;4.962;2023-11-21T10:27:47;13.00;;;11.75;;
36221;SDS011;22266;52.340;4.962;2023-11-21T10:30:16;12.00;;;11.25;;
36221;SDS011;22266;52.340;4.962;2023-11-21T10:32:44;10.00;;;9.00;;
36221;SDS011;22266;52.340;4.962;2023-11-21T10:35:10;11.00;;;8.50;;
36221;SDS011;22266;52.340;4.962;2023-11-21T10:37:37;11.75;;;10.50;;
36221;SDS011;22266;52.340;4.962;2023-11-21T10:40:09;11.50;;;9.50;;
36221;SDS011;22266;52.340;4.962;2023-11-21T10:42:39;8.75;;;7.50;;
36221;SDS011;22266;52.340;4.962;2023-11-21T10:45:07;13.00;;;9.00;;
36221;SDS011;22266;52.340;4.962;2023-11-21T10:47:41;10.25;;;9.50;;
36221;SDS011;22266;52.340;4.962;2023-11-21T10:50:08;14.75;;;8.50;;
36221;SDS011;22266;52.340;4.962;2023-11-21T10:52:40;9.50;;;5.00;;
36221;SDS011;22266;52.340;4.962;2023-11-21T10:55:16;18.50;;;12.50;;
36221;SDS011;22266;52.340;4.962;2023-11-21T10:57:48;10.50;;;7.25;;
36221;SDS011;22266;52.340;4.962;2023-11-21T11:00:17;14.25;;;10.75;;
36221;SDS011;22266;52.340;4.962;2023-11-21T11:02:53;14.50;;;11.75;;
36221;SDS011;22266;52.340;4.962;2023-11-21T11:05:25;11.00;;;9.25;;
36221;SDS011;22266;52.340;4.962;2023-11-21T11:07:59;15.00;;;11.25;;
36221;SDS011;22266;52.340;4.962;2023-11-21T11:10:29;16.75;;;10.50;;
36221;SDS011;22266;52.340;4.962;2023-11-21T11:12:56;10.25;;;10.25;;
36221;SDS011;22266;52.340;4.962;2023-11-21T11:15:27;13.25;;;10.25;;
36221;SDS011;22266;52.340;4.962;2023-11-21T11:17:54;15.50;;;15.00;;
36221;SDS011;22266;52.340;4.962;2023-11-21T11:20:32;12.00;;;12.00;;
36221;SDS011;22266;52.340;4.962;2023-11-21T11:29:09;11.50;;;10.75;;
36221;SDS011;22266;52.340;4.962;2023-11-21T11:31:50;13.25;;;12.75;;
36221;SDS011;22266;52.340;4.962;2023-11-21T11:34:36;17.75;;;13.50;;
36221;SDS011;22266;52.340;4.962;2023-11-21T11:37:10;15.00;;;12.00;;
36221;SDS011;22266;52.340;4.962;2023-11-21T11:39:40;12.50;;;10.00;;
36221;SDS011;22266;52.340;4.962;2023-11-21T11:42:08;11.00;;;10.50;;
36221;SDS011;22266;52.340;4.962;2023-11-21T11:47:15;14.00;;;11.00;;
36221;SDS011;22266;52.340;4.962;2023-11-21T11:52:44;13.50;;;13.00;;
36221;SDS011;22266;52.340;4.962;2023-11-21T11:55:12;11.50;;;9.50;;
36221;SDS011;22266;52.340;4.962;2023-11-21T11:57:40;10.50;;;10.00;;
36221;SDS011;22266;52.340;4.962;2023-11-21T12:02:44;10.50;;;10.00;;
36221;SDS011;22266;52.340;4.962;2023-11-21T12:05:12;17.50;;;14.25;;
36221;SDS011;22266;52.340;4.962;2023-11-21T12:10:16;11.75;;;8.25;;
36221;SDS011;22266;52.340;4.962;2023-11-21T12:12:45;18.50;;;16.25;;
36221;SDS011;22266;52.340;4.962;2023-11-21T12:15:12;11.75;;;11.75;;
36221;SDS011;22266;52.340;4.962;2023-11-21T12:17:41;12.00;;;12.00;;
36221;SDS011;22266;52.340;4.962;2023-11-21T12:20:08;15.75;;;13.75;;
36221;SDS011;22266;52.340;4.962;2023-11-21T12:22:41;14.75;;;12.50;;
36221;SDS011;22266;52.340;4.962;2023-11-21T12:25:10;15.25;;;11.50;;
36221;SDS011;22266;52.340;4.962;2023-11-21T12:27:42;12.00;;;8.50;;
36221;SDS011;22266;52.340;4.962;2023-11-21T12:30:11;10.00;;;7.50;;
36221;SDS011;22266;52.340;4.962;2023-11-21T12:32:40;16.00;;;15.25;;
36221;SDS011;22266;52.340;4.962;2023-11-21T12:35:11;13.75;;;13.50;;
36221;SDS011;22266;52.340;4.962;2023-11-21T12:37:38;13.00;;;13.00;;
36221;SDS011;22266;52.340;4.962;2023-11-21T12:40:06;12.25;;;11.50;;
36221;SDS011;22266;52.340;4.962;2023-11-21T12:42:34;15.75;;;15.75;;
36221;SDS011;22266;52.340;4.962;2023-11-21T12:45:08;13.75;;;13.75;;
36221;SDS011;22266;52.340;4.962;2023-11-21T12:47:41;17.25;;;13.00;;
36221;SDS011;22266;52.340;4.962;2023-11-21T12:50:09;19.25;;;14.25;;
36221;SDS011;22266;52.340;4.962;2023-11-21T12:52:45;16.00;;;14.75;;
36221;SDS011;22266;52.340;4.962;2023-11-21T12:55:18;15.75;;;13.00;;
36221;SDS011;22266;52.340;4.962;2023-11-21T12:57:54;21.75;;;17.50;;
36221;SDS011;22266;52.340;4.962;2023-11-21T13:00:31;16.75;;;11.25;;
36221;SDS011;22266;52.340;4.962;2023-11-21T13:03:01;16.50;;;12.75;;
36221;SDS011;22266;52.340;4.962;2023-11-21T13:05:28;17.00;;;16.25;;
36221;SDS011;22266;52.340;4.962;2023-11-21T13:07:56;15.25;;;13.00;;
36221;SDS011;22266;52.340;4.962;2023-11-21T13:10:25;19.00;;;15.50;;
36221;SDS011;22266;52.340;4.962;2023-11-21T13:13:00;13.25;;;11.50;;
36221;SDS011;22266;52.340;4.962;2023-11-21T13:15:27;15.00;;;11.75;;
36221;SDS011;22266;52.340;4.962;2023-11-21T13:17:54;13.75;;;12.75;;
36221;SDS011;22266;52.340;4.962;2023-11-21T13:20:24;12.00;;;11.00;;
36221;SDS011;22266;52.340;4.962;2023-11-21T13:22:57;21.00;;;15.00;;
36221;SDS011;22266;52.340;4.962;2023-11-21T13:25:25;12.75;;;12.00;;
36221;SDS011;22266;52.340;4.962;2023-11-21T13:27:54;14.00;;;11.75;;
36221;SDS011;22266;52.340;4.962;2023-11-21T13:30:21;11.25;;;9.25;;
36221;SDS011;22266;52.340;4.962;2023-11-21T13:32:53;15.00;;;12.00;;
36221;SDS011;22266;52.340;4.962;2023-11-21T13:35:23;12.00;;;10.50;;
36221;SDS011;22266;52.340;4.962;2023-11-21T13:38:04;11.00;;;11.00;;
36221;SDS011;22266;52.340;4.962;2023-11-21T13:40:33;10.50;;;9.00;;
36221;SDS011;22266;52.340;4.962;2023-11-21T13:43:06;11.50;;;10.00;;
36221;SDS011;22266;52.340;4.962;2023-11-21T13:45:36;13.25;;;13.25;;
36221;SDS011;22266;52.340;4.962;2023-11-21T13:48:08;13.50;;;12.00;;
36221;SDS011;22266;52.340;4.962;2023-11-21T13:50:40;13.50;;;11.75;;
36221;SDS011;22266;52.340;4.962;2023-11-21T13:53:15;10.00;;;10.00;;
36221;SDS011;22266;52.340;4.962;2023-11-21T13:55:49;14.25;;;10.50;;
36221;SDS011;22266;52.340;4.962;2023-11-21T13:58:17;13.50;;;11.25;;
36221;SDS011;22266;52.340;4.962;2023-11-21T14:00:49;15.00;;;11.25;;
36221;SDS011;22266;52.340;4.962;2023-11-21T14:03:23;13.25;;;10.00;;
36221;SDS011;22266;52.340;4.962;2023-11-21T14:05:58;14.75;;;14.75;;
36221;SDS011;22266;52.340;4.962;2023-11-21T14:08:26;14.25;;;13.50;;
36221;SDS011;22266;52.340;4.962;2023-11-21T14:10:55;15.75;;;14.50;;
36221;SDS011;22266;52.340;4.962;2023-11-21T14:13:23;9.25;;;9.00;;
36221;SDS011;22266;52.340;4.962;2023-11-21T14:15:50;20.50;;;14.25;;
36221;SDS011;22266;52.340;4.962;2023-11-21T14:18:24;17.50;;;14.75;;
36221;SDS011;22266;52.340;4.962;2023-11-21T14:20:57;17.75;;;15.50;;
36221;SDS011;22266;52.340;4.962;2023-11-21T14:23:24;20.00;;;16.50;;
36221;SDS011;22266;52.340;4.962;2023-11-21T14:25:50;15.00;;;14.25;;
36221;SDS011;22266;52.340;4.962;2023-11-21T14:28:18;14.50;;;11.00;;
36221;SDS011;22266;52.340;4.962;2023-11-21T14:30:46;17.00;;;16.75;;
36221;SDS011;22266;52.340;4.962;2023-11-21T14:33:13;20.50;;;17.25;;
36221;SDS011;22266;52.340;4.962;2023-11-21T14:35:39;22.50;;;17.50;;
36221;SDS011;22266;52.340;4.962;2023-11-21T14:38:06;20.00;;;18.75;;
36221;SDS011;22266;52.340;4.962;2023-11-21T14:40:32;15.00;;;14.25;;
36221;SDS011;22266;52.340;4.962;2023-11-21T14:43:00;13.75;;;13.75;;
36221;SDS011;22266;52.340;4.962;2023-11-21T14:45:27;16.50;;;13.00;;
36221;SDS011;22266;52.340;4.962;2023-11-21T14:47:55;16.00;;;15.50;;
36221;SDS011;22266;52.340;4.962;2023-11-21T14:50:40;16.25;;;14.00;;
36221;SDS011;22266;52.340;4.962;2023-11-21T14:53:25;22.50;;;17.75;;
36221;SDS011;22266;52.340;4.962;2023-11-21T14:56:10;12.25;;;11.75;;
36221;SDS011;22266;52.340;4.962;2023-11-21T14:58:37;15.75;;;15.75;;